Time;durP1;ratioP1;P1;durP2;ratioP2;P2;SDS_P1;SDS_P2;PMS_P1;PMS_P2;Temp;Humidity;BMP_temperature;BMP_pressure;BME280_temperature;BME280_humidity;BME280_pressure;Samples;Min_cycle;Max_cycle;Signal;HPM_P1;HPM_P2
2022/09/30 00:01:26;;;;;;;6.00;4.80;;;;;;;10.43;93.80;95664.06;1746756;81;20971;-87
2022/09/30 00:03:53;;;;;;;6.87;4.97;;;;;;;10.46;93.54;95669.35;1748326;81;20964;-87
2022/09/30 00:06:19;;;;;;;8.63;6.80;;;;;;;10.49;93.60;95670.25;1758833;81;21030;-87
2022/09/30 00:08:45;;;;;;;11.10;8.90;;;;;;;10.50;93.43;95673.14;1753502;81;20982;-87
2022/09/30 00:11:16;;;;;;;11.03;8.10;;;;;;;10.50;93.30;95668.75;1766475;81;21302;-87
2022/09/30 00:13:44;;;;;;;;;;;;;;;10.49;93.30;95677.54;1745498;81;21523;-87
2022/09/30 00:16:11;;;;;;;12.53;8.55;;;;;;;10.46;93.05;95670.65;1737566;81;20089;-87
2022/09/30 00:18:37;;;;;;;10.70;9.15;;;;;;;10.44;93.17;95671.35;1767605;81;21030;-87
2022/09/30 00:21:04;;;;;;;13.22;8.15;;;;;;;10.48;93.39;95666.85;1767046;80;20956;-87
2022/09/30 00:23:30;;;;;;;12.53;10.10;;;;;;;10.52;93.58;95669.84;1733875;82;20964;-87
2022/09/30 00:25:58;;;;;;;12.47;9.85;;;;;;;10.50;93.52;95659.66;1786386;80;20941;-86
2022/09/30 00:28:24;;;;;;;11.63;9.13;;;;;;;10.50;93.23;95667.45;1714067;82;20955;-86
2022/09/30 00:30:49;;;;;;;11.95;9.15;;;;;;;10.50;93.39;95665.35;1752630;81;20987;-88
2022/09/30 00:33:15;;;;;;;12.37;8.93;;;;;;;10.46;93.22;95672.75;1758451;80;20924;-87
2022/09/30 00:35:41;;;;;;;13.93;9.10;;;;;;;10.47;93.30;95664.45;1762554;78;21021;-86
2022/09/30 00:38:07;;;;;;;12.37;9.35;;;;;;;10.48;93.16;95669.95;1791921;80;21010;-87
2022/09/30 00:40:32;;;;;;;13.00;10.35;;;;;;;10.50;93.18;95675.74;1769558;80;21326;-87
2022/09/30 00:42:59;;;;;;;13.45;11.18;;;;;;;10.53;93.31;95672.74;1803040;79;20924;-87
2022/09/30 00:45:26;;;;;;;13.32;11.28;;;;;;;10.56;93.21;95680.13;1806919;79;20968;-87
2022/09/30 00:48:03;;;;;;;13.28;11.43;;;;;;;10.59;93.18;95680.27;1775354;78;21293;-87
2022/09/30 00:50:45;;;;;;;14.10;11.45;;;;;;;10.62;93.08;95688.95;1755329;80;20940;-87
2022/09/30 00:53:18;;;;;;;14.07;11.65;;;;;;;10.59;92.80;95686.76;1811054;79;20967;-87
2022/09/30 00:56:10;;;;;;;14.83;12.03;;;;;;;10.55;92.69;95686.33;1800553;80;21248;-87
2022/09/30 00:58:46;;;;;;;14.75;10.95;;;;;;;10.51;92.75;95683.83;1770275;79;21401;-88
2022/09/30 01:01:13;;;;;;;14.30;10.48;;;;;;;10.49;93.00;95674.14;1793940;80;21014;-87
2022/09/30 01:03:44;;;;;;;13.35;10.50;;;;;;;10.52;93.25;95675.04;1795228;79;20916;-87
2022/09/30 01:06:09;;;;;;;10.93;9.78;;;;;;;10.53;93.46;95676.64;1766748;79;21413;-87
2022/09/30 01:08:37;;;;;;;12.88;9.93;;;;;;;10.54;93.19;95679.53;1781322;80;21407;-87
2022/09/30 01:11:02;;;;;;;12.58;9.58;;;;;;;10.53;93.09;95676.64;1767145;80;20952;-87
2022/09/30 01:13:30;;;;;;;13.55;10.55;;;;;;;10.51;92.98;95679.44;1781393;80;20891;-87
2022/09/30 01:16:27;;;;;;;11.60;9.55;;;;;;;10.51;93.13;95686.43;1800737;80;20910;-87
2022/09/30 01:19:12;;;;;;;12.95;10.05;;;;;;;10.51;93.22;95684.63;1766326;80;21102;-87
2022/09/30 01:21:52;;;;;;;15.80;11.97;;;;;;;10.53;93.24;95684.43;1800736;80;21248;-87
2022/09/30 01:24:33;;;;;;;11.53;8.80;;;;;;;10.53;92.69;95694.83;1766956;80;21014;-87
2022/09/30 01:27:33;;;;;;;11.30;9.35;;;;;;;10.53;92.80;95693.02;1782554;79;20987;-87
2022/09/30 01:30:08;;;;;;;10.03;8.10;;;;;;;10.57;93.55;95696.52;1788981;80;21058;-87
2022/09/30 01:33:10;;;;;;;9.90;8.23;;;;;;;10.62;93.61;95688.95;1787795;80;20991;-87
2022/09/30 01:36:11;;;;;;;10.10;7.60;;;;;;;10.63;93.63;95686.16;1703297;82;21041;-87
2022/09/30 01:39:04;;;;;;;7.85;7.05;;;;;;;10.63;93.63;95686.16;1742330;81;21812;-87
2022/09/30 01:41:35;;;;;;;9.23;7.70;;;;;;;10.61;93.56;95681.66;1765010;80;20963;-87
2022/09/30 01:44:06;;;;;;;7.15;6.40;;;;;;;10.62;93.93;95685.85;1789726;80;21328;-87
2022/09/30 01:46:54;;;;;;;9.55;7.25;;;;;;;10.62;93.85;95679.86;1778332;79;20973;-87
2022/09/30 01:49:44;;;;;;;8.25;6.22;;;;;;;10.62;93.72;95682.45;1734054;81;20961;-87
2022/09/30 01:52:30;;;;;;;8.10;6.00;;;;;;;10.60;93.71;95680.56;1774813;80;20958;-87
2022/09/30 01:55:11;;;;;;;8.60;6.35;;;;;;;10.60;93.95;95688.35;1768300;80;21049;-87
2022/09/30 01:57:55;;;;;;;7.83;5.95;;;;;;;10.61;93.97;95688.16;1759420;80;21019;-88
2022/09/30 02:00:21;;;;;;;9.98;6.42;;;;;;;10.61;93.93;95688.16;1740611;81;21470;-87
2022/09/30 02:02:54;;;;;;;8.15;6.17;;;;;;;10.61;93.93;95684.76;1740158;80;20948;-87
2022/09/30 02:05:28;;;;;;;8.58;6.87;;;;;;;10.60;94.06;95685.26;1757296;81;20985;-86
2022/09/30 02:07:58;;;;;;;8.78;7.22;;;;;;;10.63;94.17;95693.15;1742788;80;21467;-86
2022/09/30 02:10:39;;;;;;;9.35;6.37;;;;;;;10.61;93.99;95688.16;1769348;80;20938;-87
2022/09/30 02:13:19;;;;;;;8.20;6.55;;;;;;;10.63;93.94;95690.05;1772502;79;20946;-86
2022/09/30 02:15:50;;;;;;;7.00;5.60;;;;;;;10.65;94.34;95691.95;1752022;81;20974;-87
2022/09/30 02:18:29;;;;;;;6.58;5.72;;;;;;;10.67;94.17;95696.94;1757139;79;21059;-88
2022/09/30 02:21:00;;;;;;;8.70;5.97;;;;;;;10.67;94.17;95696.94;1757226;81;20966;-88
2022/09/30 02:23:29;;;;;;;7.55;5.80;;;;;;;10.67;94.35;95693.84;1754565;80;20973;-87
2022/09/30 02:26:04;;;;;;;7.75;6.85;;;;;;;10.72;94.39;95699.23;1800679;79;20965;-86
2022/09/30 02:28:28;;;;;;;10.85;8.15;;;;;;;10.74;94.24;95699.06;1738844;81;20989;-87
2022/09/30 02:30:58;;;;;;;7.97;7.05;;;;;;;10.67;94.41;95680.05;1758855;80;20945;-87
2022/09/30 02:33:38;;;;;;;8.30;6.80;;;;;;;10.83;94.37;95699.95;1777908;80;21347;-87
2022/09/30 02:36:22;;;;;;;8.28;6.75;;;;;;;10.80;93.90;95695.16;1760614;79;21019;-87
2022/09/30 02:38:52;;;;;;;8.95;7.35;;;;;;;10.75;93.89;95696.77;1758977;79;21378;-86
2022/09/30 02:41:22;;;;;;;8.45;7.25;;;;;;;10.77;94.31;95702.55;1758452;79;21047;-87
2022/09/30 02:43:48;;;;;;;11.12;7.62;;;;;;;10.78;94.31;95700.26;1783508;79;20959;-87
2022/09/30 02:46:35;;;;;;;9.30;7.22;;;;;;;10.80;94.38;95699.55;1783288;79;20959;-87
2022/09/30 02:49:28;;;;;;;8.68;7.78;;;;;;;10.79;94.13;95706.55;1748415;80;20951;-87
2022/09/30 02:52:28;;;;;;;13.93;12.10;;;;;;;10.76;94.31;95712.16;1768629;79;20986;-87
2022/09/30 02:55:15;;;;;;;13.00;11.48;;;;;;;10.74;93.75;95712.85;1768137;79;21005;-86
2022/09/30 02:58:09;;;;;;;13.75;11.70;;;;;;;10.74;93.68;95713.35;1774608;79;20963;-87
2022/09/30 03:00:35;;;;;;;14.58;12.28;;;;;;;10.73;93.68;95718.22;1795187;79;20916;-87
2022/09/30 03:03:11;;;;;;;14.83;11.53;;;;;;;10.69;93.62;95710.53;1772213;79;20991;-87
2022/09/30 03:05:37;;;;;;;14.47;11.22;;;;;;;10.67;93.68;95708.63;1790083;79;21400;-87
2022/09/30 03:08:03;;;;;;;16.60;12.85;;;;;;;10.65;93.74;95714.53;1776567;79;21042;-87
2022/09/30 03:10:29;;;;;;;15.35;11.65;;;;;;;10.65;93.91;95713.23;1791573;79;21309;-86
2022/09/30 03:13:22;;;;;;;16.77;12.88;;;;;;;10.67;94.08;95713.33;1786569;80;20970;-87
2022/09/30 03:16:15;;;;;;;14.90;11.73;;;;;;;10.71;94.26;95719.72;1756940;79;20967;-87
2022/09/30 03:19:17;;;;;;;13.38;11.90;;;;;;;10.73;94.07;95716.42;1765276;79;21010;-87
2022/09/30 03:22:14;;;;;;;15.28;11.95;;;;;;;10.73;93.93;95717.72;1770253;79;20998;-87
2022/09/30 03:25:04;;;;;;;16.07;13.50;;;;;;;10.71;93.88;95717.63;1783061;80;21015;-87
2022/09/30 03:27:59;;;;;;;17.87;13.78;;;;;;;10.67;93.91;95719.83;1773945;79;20923;-87
2022/09/30 03:30:27;;;;;;;17.98;14.85;;;;;;;10.58;93.64;95715.03;1779659;80;20938;-87
2022/09/30 03:33:04;;;;;;;19.10;15.80;;;;;;;10.41;93.75;95719.30;1795839;79;20977;-87
2022/09/30 03:35:45;;;;;;;17.98;14.58;;;;;;;10.39;94.27;95724.36;1779965;80;21301;-86
2022/09/30 03:38:40;;;;;;;20.17;15.98;;;;;;;10.44;94.69;95729.28;1782836;79;21056;-87
2022/09/30 03:41:20;;;;;;;16.40;14.65;;;;;;;10.47;94.82;95726.30;1790087;79;21075;-86
2022/09/30 03:44:00;;;;;;;22.60;17.42;;;;;;;10.51;94.88;95736.58;1800156;79;20948;-86
2022/09/30 03:46:37;;;;;;;19.50;17.25;;;;;;;10.55;94.88;95737.48;1778601;79;21035;-87
2022/09/30 03:49:07;;;;;;;23.35;18.12;;;;;;;10.57;94.97;95734.98;1800152;79;21512;-86
2022/09/30 03:51:36;;;;;;;21.77;16.57;;;;;;;10.61;95.17;95732.81;1750729;79;20952;-86
2022/09/30 03:54:10;;;;;;;23.02;17.80;;;;;;;10.68;95.05;95734.91;1797046;79;21006;-86
2022/09/30 03:56:41;;;;;;;21.48;18.05;;;;;;;10.71;94.81;95736.61;1780814;79;21000;-87
2022/09/30 03:59:04;;;;;;;18.85;16.80;;;;;;;10.68;94.58;95732.31;1788364;79;20952;-87
2022/09/30 04:01:29;;;;;;;19.80;15.95;;;;;;;10.69;94.61;95740.41;1788587;79;21047;-87
2022/09/30 04:03:55;;;;;;;20.12;17.15;;;;;;;10.72;94.58;95740.01;1807778;79;20903;-87
2022/09/30 04:06:23;;;;;;;18.57;16.48;;;;;;;10.73;94.41;95734.61;1809406;79;20936;-88
2022/09/30 04:08:49;;;;;;;18.45;16.20;;;;;;;10.75;94.53;95737.04;1803631;79;21059;-85
2022/09/30 04:11:16;;;;;;;17.35;15.50;;;;;;;10.78;94.51;95730.14;1792678;79;21290;-85
2022/09/30 04:13:42;;;;;;;21.75;16.20;;;;;;;10.77;94.34;95732.44;1808988;79;20929;-85
2022/09/30 04:16:08;;;;;;;19.57;16.40;;;;;;;10.76;95.07;95729.05;1797270;79;21350;-85
2022/09/30 04:18:37;;;;;;;17.10;15.15;;;;;;;10.81;95.42;95731.04;1781147;79;20965;-85
2022/09/30 04:21:08;;;;;;;19.35;16.95;;;;;;;10.81;95.04;95727.94;1809289;79;20964;-85
2022/09/30 04:23:35;;;;;;;17.73;15.83;;;;;;;10.77;94.83;95726.74;1782217;79;20987;-85
2022/09/30 04:26:01;;;;;;;16.42;13.90;;;;;;;10.75;94.66;95728.74;1809175;79;20948;-85
2022/09/30 04:28:28;;;;;;;15.78;13.70;;;;;;;10.73;94.61;95734.61;1783310;79;21385;-85
2022/09/30 04:30:54;;;;;;;16.00;13.80;;;;;;;10.71;94.43;95735.31;1791132;78;21752;-84
2022/09/30 04:33:19;;;;;;;17.15;15.43;;;;;;;10.74;94.42;95734.14;1789063;79;20968;-85
2022/09/30 04:35:45;;;;;;;20.82;15.20;;;;;;;10.75;94.67;95735.74;1753138;81;20972;-85
2022/09/30 04:38:11;;;;;;;18.85;15.83;;;;;;;10.75;94.50;95735.74;1783577;79;21470;-85
2022/09/30 04:40:37;;;;;;;19.25;16.55;;;;;;;10.76;94.44;95739.94;1796482;79;20948;-84
2022/09/30 04:43:06;;;;;;;20.17;16.77;;;;;;;10.77;94.42;95741.53;1817106;79;20948;-85
2022/09/30 04:45:32;;;;;;;20.85;18.32;;;;;;;10.78;94.40;95745.73;1810758;79;21007;-85
2022/09/30 04:47:58;;;;;;;21.42;17.30;;;;;;;10.80;94.42;95748.43;1807739;79;20980;-84
2022/09/30 04:50:23;;;;;;;21.57;19.02;;;;;;;10.85;94.62;95745.73;1814716;79;20953;-85
2022/09/30 04:52:49;;;;;;;18.85;16.85;;;;;;;10.86;94.62;95750.72;1798710;79;20917;-85
2022/09/30 04:55:16;;;;;;;21.17;18.48;;;;;;;10.87;94.39;95742.42;1799044;79;21317;-85
2022/09/30 04:57:44;;;;;;;19.32;17.35;;;;;;;10.87;94.36;95746.33;1815934;79;20993;-84
2022/09/30 05:00:11;;;;;;;21.45;17.85;;;;;;;10.85;94.34;95750.92;1815829;79;20964;-85
2022/09/30 05:02:37;;;;;;;20.80;18.12;;;;;;;10.82;94.25;95760.72;1802007;79;20947;-85
2022/09/30 05:05:03;;;;;;;22.98;18.90;;;;;;;10.80;94.15;95758.83;1810873;79;20892;-85
2022/09/30 05:07:31;;;;;;;23.27;18.42;;;;;;;10.80;94.29;95754.93;1800826;79;21402;-85
2022/09/30 05:09:57;;;;;;;20.12;17.30;;;;;;;10.80;94.38;95754.13;1813178;79;20995;-85
2022/09/30 05:12:25;;;;;;;20.75;16.67;;;;;;;10.83;94.76;95750.63;1788912;79;20985;-85
2022/09/30 05:14:50;;;;;;;21.33;16.32;;;;;;;10.91;94.89;95750.95;1795626;79;20995;-84
2022/09/30 05:17:16;;;;;;;21.62;18.07;;;;;;;10.95;94.78;95756.55;1802037;79;21035;-85
2022/09/30 05:19:42;;;;;;;20.65;16.70;;;;;;;10.94;94.23;95760.14;1817207;79;20940;-85
2022/09/30 05:22:07;;;;;;;20.35;17.98;;;;;;;10.94;94.56;95757.55;1809749;79;20936;-84
2022/09/30 05:24:33;;;;;;;20.37;17.40;;;;;;;10.94;94.42;95766.64;1795926;79;21294;-85
2022/09/30 05:27:00;;;;;;;19.50;16.35;;;;;;;10.91;94.32;95761.34;1749915;80;20952;-85
2022/09/30 05:29:26;;;;;;;17.55;15.38;;;;;;;10.86;94.36;95767.62;1785983;79;20988;-85
2022/09/30 05:31:52;;;;;;;19.27;16.00;;;;;;;10.88;94.55;95770.02;1803839;79;20976;-85
2022/09/30 05:34:17;;;;;;;20.10;16.42;;;;;;;10.91;94.51;95776.14;1812036;79;20989;-85
2022/09/30 05:36:43;;;;;;;17.90;15.98;;;;;;;10.91;94.51;95783.44;1775149;79;21000;-85
2022/09/30 05:39:10;;;;;;;20.77;15.75;;;;;;;10.95;94.53;95785.94;1802643;79;20965;-85
2022/09/30 05:41:37;;;;;;;19.42;15.75;;;;;;;10.95;94.39;95783.34;1802823;79;20987;-85
2022/09/30 05:44:03;;;;;;;21.07;16.90;;;;;;;10.95;94.40;95785.94;1794415;79;21367;-85
2022/09/30 05:46:29;;;;;;;17.65;14.47;;;;;;;10.97;94.59;95787.84;1771259;80;20955;-85
2022/09/30 05:48:54;;;;;;;19.30;16.30;;;;;;;10.97;94.50;95784.44;1798732;79;20956;-85
2022/09/30 05:51:21;;;;;;;21.37;17.60;;;;;;;10.98;94.47;95788.14;1802713;79;20956;-85
2022/09/30 05:53:46;;;;;;;23.18;18.07;;;;;;;11.01;94.31;95789.03;1802703;79;21382;-85
2022/09/30 05:56:12;;;;;;;20.92;17.60;;;;;;;11.05;94.42;95792.83;1802783;79;20927;-84
2022/09/30 05:58:40;;;;;;;21.42;17.92;;;;;;;11.08;94.22;95795.05;1776241;80;21001;-85
2022/09/30 06:01:12;;;;;;;21.97;18.10;;;;;;;11.09;94.16;95793.26;1794395;78;21404;-85
2022/09/30 06:03:38;;;;;;;22.05;17.55;;;;;;;11.10;94.54;95792.25;1771471;80;21054;-85
2022/09/30 06:06:05;;;;;;;22.30;17.30;;;;;;;11.13;94.68;95791.35;1776692;79;21054;-85
2022/09/30 06:08:31;;;;;;;20.05;16.52;;;;;;;11.13;94.53;95793.16;1771252;80;21027;-85
2022/09/30 06:10:59;;;;;;;18.50;15.72;;;;;;;11.14;94.52;95793.45;1777079;79;20964;-85
2022/09/30 06:13:26;;;;;;;17.73;15.38;;;;;;;11.18;94.73;95800.34;1787094;80;20946;-85
2022/09/30 06:16:00;;;;;;;19.82;16.45;;;;;;;11.16;94.48;95795.34;1774269;79;21015;-85
2022/09/30 06:18:26;;;;;;;18.57;15.38;;;;;;;11.19;94.99;95802.74;1788433;80;21381;-85
2022/09/30 06:20:57;;;;;;;21.70;17.62;;;;;;;11.21;94.91;95796.05;1793319;80;20932;-84
2022/09/30 06:23:23;;;;;;;19.65;16.62;;;;;;;11.26;95.48;95791.06;1783656;79;21308;-85
2022/09/30 06:25:52;;;;;;;20.08;16.12;;;;;;;11.30;95.38;95798.76;1780791;80;21011;-85
2022/09/30 06:28:18;;;;;;;20.57;16.50;;;;;;;11.36;95.31;95805.25;1780827;79;20947;-85
2022/09/30 06:30:45;;;;;;;18.00;15.60;;;;;;;11.36;95.32;95800.05;1783194;80;21376;-85
2022/09/30 06:33:11;;;;;;;19.95;15.58;;;;;;;11.34;94.66;95799.95;1803449;79;20929;-85
2022/09/30 06:35:40;;;;;;;19.98;16.17;;;;;;;11.40;95.29;95801.77;1793470;79;21090;-85
2022/09/30 06:38:09;;;;;;;16.37;14.38;;;;;;;11.41;95.09;95805.47;1764120;79;21027;-85
2022/09/30 06:40:35;;;;;;;15.90;13.22;;;;;;;11.45;95.33;95805.06;1734388;82;21371;-85
2022/09/30 06:43:01;;;;;;;15.63;13.15;;;;;;;11.47;95.31;95802.55;1748616;80;21354;-85
2022/09/30 06:45:28;;;;;;;17.70;14.83;;;;;;;11.48;94.57;95803.36;1778636;80;20904;-85
2022/09/30 06:47:58;;;;;;;19.02;14.63;;;;;;;11.48;94.70;95804.66;1760414;81;21019;-85
2022/09/30 06:50:23;;;;;;;16.48;14.68;;;;;;;11.47;95.11;95804.36;1778630;80;20971;-84
2022/09/30 06:52:50;;;;;;;17.82;14.78;;;;;;;11.47;95.28;95804.36;1766584;80;21277;-85
2022/09/30 06:55:17;;;;;;;15.85;13.93;;;;;;;11.41;94.86;95806.77;1768382;80;21374;-85
2022/09/30 06:57:45;;;;;;;14.85;12.85;;;;;;;11.32;94.44;95805.36;1770000;80;20953;-83
2022/09/30 07:00:12;;;;;;;13.72;11.75;;;;;;;11.33;94.56;95807.45;1785221;79;21012;-85
2022/09/30 07:02:38;;;;;;;13.95;11.73;;;;;;;11.26;94.00;95808.77;1771087;80;20947;-85
2022/09/30 07:05:05;;;;;;;13.80;11.85;;;;;;;11.28;94.79;95805.46;1777780;80;21023;-85
2022/09/30 07:07:33;;;;;;;12.80;11.05;;;;;;;11.36;95.23;95815.66;1767455;80;20993;-85
2022/09/30 07:09:58;;;;;;;13.93;12.40;;;;;;;11.45;95.59;95817.57;1775268;80;21060;-85
2022/09/30 07:12:25;;;;;;;16.37;12.58;;;;;;;11.51;95.42;95816.75;1755230;80;21445;-84
2022/09/30 07:14:51;;;;;;;14.00;11.57;;;;;;;11.59;95.68;95822.27;1781197;80;22066;-85
2022/09/30 07:17:18;;;;;;;13.25;11.65;;;;;;;11.60;94.78;95827.27;1785916;80;21041;-84
2022/09/30 07:19:43;;;;;;;13.45;11.95;;;;;;;11.46;93.85;95823.07;1764328;80;21398;-85
2022/09/30 07:22:33;;;;;;;14.78;12.90;;;;;;;11.41;94.51;95824.18;1776610;80;20956;-85
2022/09/30 07:24:59;;;;;;;14.60;13.15;;;;;;;11.42;94.91;95828.38;1773273;80;21338;-86
2022/09/30 07:27:26;;;;;;;12.95;11.35;;;;;;;11.41;95.29;95828.08;1785944;80;21024;-85
2022/09/30 07:29:52;;;;;;;13.30;11.90;;;;;;;11.40;95.50;95832.48;1746975;82;21391;-85
2022/09/30 07:32:19;;;;;;;12.45;11.10;;;;;;;11.42;95.24;95837.48;1784404;80;20944;-85
2022/09/30 07:34:45;;;;;;;13.62;12.23;;;;;;;11.43;95.36;95835.98;1782641;80;21049;-84
2022/09/30 07:37:13;;;;;;;15.32;13.00;;;;;;;11.51;95.82;95832.87;1758309;80;21501;-85
2022/09/30 07:39:40;;;;;;;17.82;13.15;;;;;;;11.55;95.92;95837.49;1728992;81;21147;-85
2022/09/30 07:42:06;;;;;;;13.98;12.47;;;;;;;11.61;95.95;95837.98;1727536;83;21458;-85
2022/09/30 07:44:32;;;;;;;15.60;13.05;;;;;;;11.64;95.91;95846.67;1773080;80;20991;-85
2022/09/30 07:47:01;;;;;;;15.40;12.95;;;;;;;11.63;95.17;95845.58;1754605;82;20993;-85
2022/09/30 07:49:27;;;;;;;16.25;13.83;;;;;;;11.54;94.62;95850.17;1786128;80;20944;-85
2022/09/30 07:51:55;;;;;;;15.95;13.53;;;;;;;11.41;94.51;95852.30;1740649;82;20916;-84
2022/09/30 07:54:25;;;;;;;14.40;12.47;;;;;;;11.24;94.71;95864.08;1784108;80;20955;-85
2022/09/30 07:56:51;;;;;;;14.05;11.43;;;;;;;11.23;95.83;95854.68;1782934;80;20946;-85
2022/09/30 07:59:17;;;;;;;14.20;12.10;;;;;;;11.31;96.42;95855.78;1782553;80;20993;-85
2022/09/30 08:01:43;;;;;;;14.00;12.45;;;;;;;11.27;95.66;95861.08;1745737;80;20927;-85
2022/09/30 08:04:09;;;;;;;16.55;12.35;;;;;;;11.24;95.87;95860.69;1725068;82;20999;-85
2022/09/30 08:06:39;;;;;;;14.00;12.53;;;;;;;11.27;96.13;95868.88;1755426;80;21019;-85
2022/09/30 08:09:05;;;;;;;13.15;11.75;;;;;;;11.36;96.75;95873.38;1774984;80;21035;-85
2022/09/30 08:11:35;;;;;;;13.98;12.40;;;;;;;11.41;97.02;95865.30;1742478;80;20934;-85
2022/09/30 08:14:01;;;;;;;14.70;11.93;;;;;;;11.51;97.21;95868.79;1786259;80;21447;-86
2022/09/30 08:16:27;;;;;;;15.13;12.58;;;;;;;11.57;97.11;95871.11;1779291;80;21014;-85
2022/09/30 08:18:56;;;;;;;15.15;12.37;;;;;;;11.63;97.09;95871.60;1737408;81;21048;-85
2022/09/30 08:21:22;;;;;;;16.40;12.82;;;;;;;11.66;96.59;95869.39;1758061;81;21389;-85
2022/09/30 08:23:48;;;;;;;15.65;12.78;;;;;;;11.64;96.60;95874.50;1750174;80;20940;-85
2022/09/30 08:26:17;;;;;;;14.80;12.95;;;;;;;11.69;96.46;95871.59;1766415;81;21000;-85
2022/09/30 08:28:45;;;;;;;16.32;13.48;;;;;;;11.75;96.85;95875.72;1767541;80;21000;-85
2022/09/30 08:31:14;;;;;;;15.25;13.03;;;;;;;11.86;97.30;95875.12;1767462;81;21044;-86
2022/09/30 08:33:40;;;;;;;14.45;12.95;;;;;;;11.88;96.49;95880.45;1760473;80;20959;-86
2022/09/30 08:36:13;;;;;;;14.30;12.80;;;;;;;11.89;97.19;95880.75;1737226;81;20991;-85
2022/09/30 08:38:39;;;;;;;14.33;12.45;;;;;;;11.92;96.98;95886.84;1794451;79;21381;-85
2022/09/30 08:41:32;;;;;;;13.05;11.68;;;;;;;11.91;96.87;95883.14;1814385;79;20987;-86
2022/09/30 08:44:15;;;;;;;15.43;11.95;;;;;;;11.85;96.14;95888.63;1793364;79;21346;-86
2022/09/30 08:47:15;;;;;;;12.50;11.20;;;;;;;11.82;96.27;95885.64;1812459;79;21414;-85
2022/09/30 08:50:12;;;;;;;13.40;11.97;;;;;;;11.90;96.90;95891.45;1783143;79;21359;-85
2022/09/30 08:52:48;;;;;;;13.65;12.05;;;;;;;11.92;96.53;95892.05;1792184;79;20995;-86
2022/09/30 08:55:28;;;;;;;12.43;11.22;;;;;;;11.90;96.60;95892.75;1800860;79;21043;-86
2022/09/30 08:57:55;;;;;;;13.72;11.03;;;;;;;11.91;96.51;95893.05;1790064;79;20983;-85
2022/09/30 09:00:21;;;;;;;12.43;11.12;;;;;;;11.93;96.59;95899.36;1790505;79;20976;-85
2022/09/30 09:03:01;;;;;;;12.23;10.48;;;;;;;11.95;96.30;95897.35;1790014;79;21021;-85
2022/09/30 09:05:39;;;;;;;13.28;10.53;;;;;;;11.93;96.31;95900.16;1813284;79;20988;-85
2022/09/30 09:08:18;;;;;;;12.23;10.90;;;;;;;11.93;96.67;95898.86;1801062;79;21346;-85
2022/09/30 09:10:50;;;;;;;11.45;10.25;;;;;;;11.96;96.65;95903.66;1788234;79;20968;-85
2022/09/30 09:13:39;;;;;;;10.78;9.68;;;;;;;11.92;95.91;95905.06;1760402;80;21047;-86
2022/09/30 09:16:17;;;;;;;9.73;8.73;;;;;;;11.94;96.16;95904.36;1770722;79;20956;-85
2022/09/30 09:19:00;;;;;;;10.05;8.83;;;;;;;11.97;96.69;95913.56;1794001;79;20987;-85
2022/09/30 09:21:37;;;;;;;9.08;8.00;;;;;;;11.99;96.37;95908.95;1777795;79;21484;-86
2022/09/30 09:24:03;;;;;;;9.28;8.33;;;;;;;11.98;95.98;95909.95;1784417;79;20964;-86
2022/09/30 09:26:32;;;;;;;10.05;9.05;;;;;;;11.94;95.79;95914.78;1803017;79;21440;-85
2022/09/30 09:29:40;;;;;;;9.70;8.60;;;;;;;11.90;96.49;95916.19;1803072;79;20941;-85
2022/09/30 09:32:19;;;;;;;8.93;7.90;;;;;;;11.98;97.20;95909.45;1787515;80;20961;-85
2022/09/30 09:34:50;;;;;;;9.00;8.00;;;;;;;11.99;96.57;95919.38;1750891;80;20975;-86
2022/09/30 09:40:39;;;;;;;8.78;7.87;;;;;;;11.96;97.66;95911.47;1780833;80;21038;-85
2022/09/30 09:43:22;;;;;;;8.23;7.03;;;;;;;12.04;97.01;95922.19;1787772;80;21026;-85
2022/09/30 09:46:18;;;;;;;8.05;7.15;;;;;;;11.98;96.44;95920.38;1785679;80;21014;-85
2022/09/30 09:48:44;;;;;;;8.08;7.30;;;;;;;11.97;96.53;95929.19;1779179;80;21064;-85
2022/09/30 09:51:33;;;;;;;7.00;6.30;;;;;;;11.96;96.36;95925.78;1814506;79;20940;-85
2022/09/30 09:53:59;;;;;;;7.20;6.50;;;;;;;11.94;96.71;95923.09;1789272;80;20906;-85
2022/09/30 09:56:28;;;;;;;7.90;6.78;;;;;;;11.95;96.43;95932.50;1782994;80;21015;-85
2022/09/30 09:59:16;;;;;;;6.75;6.15;;;;;;;11.96;96.91;95932.30;1785437;80;21002;-85
2022/09/30 10:01:51;;;;;;;6.72;6.08;;;;;;;12.01;97.43;95938.99;1796023;79;20928;-85
2022/09/30 10:04:22;;;;;;;6.92;6.22;;;;;;;12.14;97.99;95930.87;1796961;80;21095;-85
2022/09/30 10:07:00;;;;;;;6.92;6.22;;;;;;;12.19;97.12;95938.87;1758370;80;20951;-86
2022/09/30 10:09:39;;;;;;;7.33;6.62;;;;;;;12.22;97.40;95941.10;1759380;80;21007;-85
2022/09/30 10:12:14;;;;;;;7.80;6.90;;;;;;;12.21;96.81;95936.90;1791135;80;20997;-85
2022/09/30 10:15:00;;;;;;;8.53;7.72;;;;;;;12.17;96.51;95940.89;1768864;80;21014;-85
2022/09/30 10:17:32;;;;;;;7.72;6.97;;;;;;;12.12;96.63;95944.11;1790901;79;21011;-86
2022/09/30 10:20:06;;;;;;;8.10;7.05;;;;;;;12.10;96.42;95950.02;1767327;80;21026;-85
2022/09/30 10:22:34;;;;;;;8.03;7.22;;;;;;;12.12;96.47;95948.02;1788927;79;21000;-86
2022/09/30 10:25:20;;;;;;;8.68;7.78;;;;;;;12.09;96.27;95944.52;1785009;80;20959;-86
2022/09/30 10:27:50;;;;;;;7.47;6.75;;;;;;;12.08;96.43;95949.92;1767248;79;21012;-86
2022/09/30 10:30:40;;;;;;;6.85;6.15;;;;;;;12.11;96.31;95956.83;1781525;80;21017;-85
2022/09/30 10:33:26;;;;;;;8.33;7.28;;;;;;;12.14;96.75;95960.33;1762235;80;20948;-85
2022/09/30 10:36:07;;;;;;;8.18;7.03;;;;;;;12.22;96.85;95957.53;1768229;80;21317;-86
2022/09/30 10:38:33;;;;;;;8.00;7.08;;;;;;;12.37;97.41;95959.13;1786640;79;21447;-86
2022/09/30 10:40:59;;;;;;;10.10;7.95;;;;;;;12.45;97.39;95965.41;1748928;80;20969;-86
2022/09/30 10:43:33;;;;;;;6.97;6.28;;;;;;;12.47;96.94;95970.70;1760831;80;21346;-86
2022/09/30 10:46:02;;;;;;;8.68;7.78;;;;;;;12.48;96.75;95967.60;1781147;80;21014;-86
2022/09/30 10:48:26;;;;;;;8.20;6.53;;;;;;;12.55;97.60;95971.81;1764615;80;20964;-85
2022/09/30 10:50:52;;;;;;;11.20;7.78;;;;;;;12.58;97.43;95973.20;1764688;80;21052;-86
2022/09/30 10:53:22;;;;;;;8.55;7.17;;;;;;;12.56;97.15;95976.52;1743505;80;20985;-86
2022/09/30 10:55:48;;;;;;;8.25;7.25;;;;;;;12.40;96.85;95951.70;1753955;80;21009;-86
2022/09/30 10:58:46;;;;;;;9.35;8.35;;;;;;;12.60;97.10;95975.10;1767906;80;20943;-86
2022/09/30 11:01:35;;;;;;;8.98;7.95;;;;;;;12.61;96.96;95980.61;1768893;80;21321;-86
2022/09/30 11:04:12;;;;;;;9.63;7.67;;;;;;;12.62;96.61;95980.41;1768066;81;20963;-86
2022/09/30 11:06:38;;;;;;;11.05;8.95;;;;;;;12.62;97.07;95985.62;1768240;80;20946;-85
2022/09/30 11:09:21;;;;;;;9.25;8.33;;;;;;;12.65;97.04;95990.13;1791619;80;21064;-85
2022/09/30 11:11:58;;;;;;;9.28;8.20;;;;;;;12.67;96.51;95988.91;1769092;81;21038;-86
2022/09/30 11:14:36;;;;;;;9.28;8.28;;;;;;;12.70;96.58;95991.13;1745034;80;21420;-84
2022/09/30 11:17:16;;;;;;;10.53;8.95;;;;;;;12.71;96.70;95994.03;1767857;80;20999;-86
2022/09/30 11:19:47;;;;;;;8.90;8.00;;;;;;;12.74;96.71;95995.43;1743304;80;21026;-85
2022/09/30 11:22:35;;;;;;;8.58;7.67;;;;;;;12.71;95.94;95993.23;1754401;80;21980;-86
2022/09/30 11:25:01;;;;;;;8.90;7.83;;;;;;;12.74;96.17;96001.44;1760402;80;20962;-86
2022/09/30 11:27:54;;;;;;;10.20;8.78;;;;;;;12.70;95.95;96000.26;1739152;81;20979;-85
2022/09/30 11:30:32;;;;;;;20.25;14.35;;;;;;;12.71;96.47;96010.98;1738929;80;21399;-85
2022/09/30 11:33:20;;;;;;;27.30;19.52;;;;;;;12.72;96.21;96000.05;1741095;80;20982;-86
2022/09/30 11:36:04;;;;;;;13.20;10.80;;;;;;;12.76;96.10;96007.25;1738574;80;20998;-86
2022/09/30 11:39:04;;;;;;;13.50;9.33;;;;;;;12.79;96.16;96004.73;1771400;79;21031;-86
2022/09/30 11:41:44;;;;;;;11.43;10.25;;;;;;;12.77;95.97;96010.16;1782775;79;21354;-86
2022/09/30 11:44:33;;;;;;;10.68;9.18;;;;;;;12.76;95.92;96007.25;1780788;79;20943;-86
2022/09/30 11:47:19;;;;;;;12.40;10.63;;;;;;;12.72;95.39;96010.48;1760891;80;21011;-85
2022/09/30 11:50:06;;;;;;;8.15;7.35;;;;;;;12.66;95.61;96014.67;1749708;82;20982;-86
2022/09/30 11:52:52;;;;;;;13.65;9.15;;;;;;;12.64;95.94;96015.39;1742200;81;21393;-86